sensor_id;sensor_type;location;lat;lon;timestamp;P1;durP1;ratioP1;P2;durP2;ratioP2
23567;SDS011;11962;50.838;4.430;2022-11-23T00:01:27;16.65;;;2.42;;
23567;SDS011;11962;50.838;4.430;2022-11-23T00:03:55;9.88;;;2.13;;
23567;SDS011;11962;50.838;4.430;2022-11-23T00:06:23;14.15;;;2.83;;
23567;SDS011;11962;50.838;4.430;2022-11-23T00:08:50;15.85;;;3.22;;
23567;SDS011;11962;50.838;4.430;2022-11-23T00:11:16;11.25;;;2.45;;
23567;SDS011;11962;50.838;4.430;2022-11-23T00:13:43;9.10;;;2.15;;
23567;SDS011;11962;50.838;4.430;2022-11-23T00:16:12;12.93;;;2.60;;
23567;SDS011;11962;50.838;4.430;2022-11-23T00:18:38;10.10;;;2.40;;
23567;SDS011;11962;50.838;4.430;2022-11-23T00:21:08;11.25;;;2.30;;
23567;SDS011;11962;50.838;4.430;2022-11-23T00:23:36;12.18;;;2.20;;
23567;SDS011;11962;50.838;4.430;2022-11-23T00:26:02;9.07;;;2.17;;
23567;SDS011;11962;50.838;4.430;2022-11-23T00:28:29;10.38;;;2.20;;
23567;SDS011;11962;50.838;4.430;2022-11-23T00:30:55;9.65;;;2.25;;
23567;SDS011;11962;50.838;4.430;2022-11-23T00:33:20;15.70;;;2.72;;
23567;SDS011;11962;50.838;4.430;2022-11-23T00:35:46;11.60;;;2.25;;
23567;SDS011;11962;50.838;4.430;2022-11-23T00:38:11;12.57;;;1.90;;
23567;SDS011;11962;50.838;4.430;2022-11-23T00:40:37;10.95;;;2.10;;
23567;SDS011;11962;50.838;4.430;2022-11-23T00:43:03;8.45;;;2.13;;
23567;SDS011;11962;50.838;4.430;2022-11-23T00:45:28;13.27;;;2.25;;
23567;SDS011;11962;50.838;4.430;2022-11-23T00:47:54;11.90;;;2.67;;
23567;SDS011;11962;50.838;4.430;2022-11-23T00:50:20;13.95;;;2.45;;
23567;SDS011;11962;50.838;4.430;2022-11-23T00:52:45;17.02;;;2.40;;
23567;SDS011;11962;50.838;4.430;2022-11-23T00:55:11;15.27;;;2.75;;
23567;SDS011;11962;50.838;4.430;2022-11-23T00:57:36;14.88;;;2.42;;
23567;SDS011;11962;50.838;4.430;2022-11-23T01:00:03;10.98;;;2.10;;
23567;SDS011;11962;50.838;4.430;2022-11-23T01:02:30;14.93;;;2.17;;
23567;SDS011;11962;50.838;4.430;2022-11-23T01:04:55;8.63;;;2.03;;
23567;SDS011;11962;50.838;4.430;2022-11-23T01:07:21;10.50;;;2.70;;
23567;SDS011;11962;50.838;4.430;2022-11-23T01:09:46;11.60;;;2.53;;
23567;SDS011;11962;50.838;4.430;2022-11-23T01:12:12;10.35;;;2.22;;
23567;SDS011;11962;50.838;4.430;2022-11-23T01:14:37;12.70;;;2.13;;
23567;SDS011;11962;50.838;4.430;2022-11-23T01:17:03;22.05;;;2.45;;
23567;SDS011;11962;50.838;4.430;2022-11-23T01:19:29;15.82;;;2.38;;
23567;SDS011;11962;50.838;4.430;2022-11-23T01:21:54;17.42;;;2.78;;
23567;SDS011;11962;50.838;4.430;2022-11-23T01:24:20;13.35;;;2.60;;
23567;SDS011;11962;50.838;4.430;2022-11-23T01:26:53;18.27;;;3.83;;
23567;SDS011;11962;50.838;4.430;2022-11-23T01:29:20;12.95;;;2.83;;
23567;SDS011;11962;50.838;4.430;2022-11-23T01:31:46;14.10;;;2.85;;
23567;SDS011;11962;50.838;4.430;2022-11-23T01:34:12;13.00;;;3.78;;
23567;SDS011;11962;50.838;4.430;2022-11-23T01:36:39;12.05;;;3.00;;
23567;SDS011;11962;50.838;4.430;2022-11-23T01:39:05;17.05;;;3.33;;
23567;SDS011;11962;50.838;4.430;2022-11-23T01:41:34;17.85;;;3.60;;
23567;SDS011;11962;50.838;4.430;2022-11-23T01:46:47;13.55;;;3.13;;
23567;SDS011;11962;50.838;4.430;2022-11-23T01:49:13;16.83;;;3.15;;
23567;SDS011;11962;50.838;4.430;2022-11-23T01:51:39;14.65;;;2.72;;
23567;SDS011;11962;50.838;4.430;2022-11-23T01:54:13;13.25;;;2.85;;
23567;SDS011;11962;50.838;4.430;2022-11-23T01:56:46;15.98;;;2.65;;
23567;SDS011;11962;50.838;4.430;2022-11-23T01:59:17;8.77;;;2.53;;
23567;SDS011;11962;50.838;4.430;2022-11-23T02:01:43;14.20;;;2.88;;
23567;SDS011;11962;50.838;4.430;2022-11-23T02:04:10;11.32;;;3.15;;
23567;SDS011;11962;50.838;4.430;2022-11-23T02:06:42;13.95;;;3.03;;
23567;SDS011;11962;50.838;4.430;2022-11-23T02:09:11;16.17;;;2.72;;
23567;SDS011;11962;50.838;4.430;2022-11-23T02:11:38;13.38;;;3.53;;
23567;SDS011;11962;50.838;4.430;2022-11-23T02:14:03;16.83;;;3.40;;
23567;SDS011;11962;50.838;4.430;2022-11-23T02:16:29;14.18;;;3.28;;
23567;SDS011;11962;50.838;4.430;2022-11-23T02:18:58;17.88;;;3.42;;
23567;SDS011;11962;50.838;4.430;2022-11-23T02:21:24;13.27;;;3.45;;
23567;SDS011;11962;50.838;4.430;2022-11-23T02:24:02;12.50;;;2.92;;
23567;SDS011;11962;50.838;4.430;2022-11-23T02:26:42;16.85;;;2.97;;
23567;SDS011;11962;50.838;4.430;2022-11-23T02:31:37;13.18;;;2.90;;
23567;SDS011;11962;50.838;4.430;2022-11-23T02:34:02;12.20;;;2.90;;
23567;SDS011;11962;50.838;4.430;2022-11-23T02:39:20;18.17;;;3.15;;
23567;SDS011;11962;50.838;4.430;2022-11-23T02:42:01;13.23;;;3.42;;
23567;SDS011;11962;50.838;4.430;2022-11-23T02:47:06;15.55;;;3.00;;
23567;SDS011;11962;50.838;4.430;2022-11-23T02:49:32;13.05;;;2.50;;
23567;SDS011;11962;50.838;4.430;2022-11-23T02:51:58;18.05;;;2.70;;
23567;SDS011;11962;50.838;4.430;2022-11-23T02:54:25;12.35;;;2.38;;
23567;SDS011;11962;50.838;4.430;2022-11-23T02:56:51;18.50;;;2.83;;
23567;SDS011;11962;50.838;4.430;2022-11-23T02:59:17;18.92;;;2.95;;
23567;SDS011;11962;50.838;4.430;2022-11-23T03:01:42;19.98;;;2.80;;
23567;SDS011;11962;50.838;4.430;2022-11-23T03:04:08;10.93;;;2.22;;
23567;SDS011;11962;50.838;4.430;2022-11-23T03:06:34;14.10;;;2.67;;
23567;SDS011;11962;50.838;4.430;2022-11-23T03:09:00;15.23;;;2.35;;
23567;SDS011;11962;50.838;4.430;2022-11-23T03:11:26;10.85;;;2.50;;
23567;SDS011;11962;50.838;4.430;2022-11-23T03:13:51;23.85;;;2.92;;
23567;SDS011;11962;50.838;4.430;2022-11-23T03:16:17;13.27;;;2.45;;
23567;SDS011;11962;50.838;4.430;2022-11-23T03:18:43;14.90;;;2.72;;
23567;SDS011;11962;50.838;4.430;2022-11-23T03:21:08;16.48;;;2.55;;
23567;SDS011;11962;50.838;4.430;2022-11-23T03:23:44;15.75;;;3.13;;
23567;SDS011;11962;50.838;4.430;2022-11-23T03:26:10;13.35;;;2.78;;
23567;SDS011;11962;50.838;4.430;2022-11-23T03:28:36;12.38;;;2.60;;
23567;SDS011;11962;50.838;4.430;2022-11-23T03:31:01;17.92;;;3.17;;
23567;SDS011;11962;50.838;4.430;2022-11-23T03:33:27;10.15;;;2.88;;
23567;SDS011;11962;50.838;4.430;2022-11-23T03:35:53;15.60;;;3.15;;
23567;SDS011;11962;50.838;4.430;2022-11-23T03:38:18;14.88;;;2.85;;
23567;SDS011;11962;50.838;4.430;2022-11-23T03:40:44;18.52;;;2.92;;
23567;SDS011;11962;50.838;4.430;2022-11-23T03:43:10;12.18;;;3.10;;
23567;SDS011;11962;50.838;4.430;2022-11-23T03:45:37;17.77;;;3.50;;
23567;SDS011;11962;50.838;4.430;2022-11-23T03:48:02;15.35;;;3.40;;
23567;SDS011;11962;50.838;4.430;2022-11-23T03:50:28;13.30;;;3.10;;
23567;SDS011;11962;50.838;4.430;2022-11-23T03:52:54;16.30;;;2.97;;
23567;SDS011;11962;50.838;4.430;2022-11-23T03:55:20;15.07;;;2.97;;
23567;SDS011;11962;50.838;4.430;2022-11-23T03:57:49;17.25;;;2.67;;
23567;SDS011;11962;50.838;4.430;2022-11-23T04:02:41;18.50;;;3.22;;
23567;SDS011;11962;50.838;4.430;2022-11-23T04:05:07;16.80;;;2.80;;
23567;SDS011;11962;50.838;4.430;2022-11-23T04:07:33;16.20;;;3.00;;
23567;SDS011;11962;50.838;4.430;2022-11-23T04:09:59;13.63;;;3.17;;
23567;SDS011;11962;50.838;4.430;2022-11-23T04:12:25;17.50;;;3.22;;
23567;SDS011;11962;50.838;4.430;2022-11-23T04:14:51;12.95;;;2.85;;
23567;SDS011;11962;50.838;4.430;2022-11-23T04:17:17;21.98;;;2.80;;
23567;SDS011;11962;50.838;4.430;2022-11-23T04:19:42;14.52;;;3.42;;
23567;SDS011;11962;50.838;4.430;2022-11-23T04:22:08;14.68;;;3.13;;
23567;SDS011;11962;50.838;4.430;2022-11-23T04:24:34;19.23;;;2.95;;
23567;SDS011;11962;50.838;4.430;2022-11-23T04:26:59;13.73;;;2.75;;
23567;SDS011;11962;50.838;4.430;2022-11-23T04:29:25;12.48;;;3.05;;
23567;SDS011;11962;50.838;4.430;2022-11-23T04:31:51;13.25;;;2.70;;
23567;SDS011;11962;50.838;4.430;2022-11-23T04:34:16;15.13;;;2.80;;
23567;SDS011;11962;50.838;4.430;2022-11-23T04:36:42;15.20;;;3.08;;
23567;SDS011;11962;50.838;4.430;2022-11-23T04:39:09;17.80;;;2.83;;
23567;SDS011;11962;50.838;4.430;2022-11-23T04:41:36;14.95;;;2.67;;
23567;SDS011;11962;50.838;4.430;2022-11-23T04:44:02;9.98;;;2.83;;
23567;SDS011;11962;50.838;4.430;2022-11-23T04:46:28;23.52;;;2.95;;
23567;SDS011;11962;50.838;4.430;2022-11-23T04:48:54;14.15;;;2.72;;
23567;SDS011;11962;50.838;4.430;2022-11-23T04:51:19;19.40;;;2.75;;
23567;SDS011;11962;50.838;4.430;2022-11-23T04:53:45;17.30;;;2.78;;
23567;SDS011;11962;50.838;4.430;2022-11-23T04:56:10;11.73;;;2.50;;
23567;SDS011;11962;50.838;4.430;2022-11-23T04:58:36;16.50;;;3.20;;
23567;SDS011;11962;50.838;4.430;2022-11-23T05:01:02;13.90;;;3.40;;
23567;SDS011;11962;50.838;4.430;2022-11-23T05:03:28;15.73;;;2.60;;
23567;SDS011;11962;50.838;4.430;2022-11-23T05:05:56;18.27;;;2.60;;
23567;SDS011;11962;50.838;4.430;2022-11-23T05:08:23;13.82;;;2.70;;
23567;SDS011;11962;50.838;4.430;2022-11-23T05:10:50;16.13;;;3.20;;
23567;SDS011;11962;50.838;4.430;2022-11-23T05:13:16;15.20;;;2.83;;
23567;SDS011;11962;50.838;4.430;2022-11-23T05:15:42;17.02;;;2.80;;
23567;SDS011;11962;50.838;4.430;2022-11-23T05:18:07;16.17;;;2.45;;
23567;SDS011;11962;50.838;4.430;2022-11-23T05:20:34;13.07;;;2.78;;
23567;SDS011;11962;50.838;4.430;2022-11-23T05:23:00;17.67;;;2.95;;
23567;SDS011;11962;50.838;4.430;2022-11-23T05:25:26;14.70;;;2.80;;
23567;SDS011;11962;50.838;4.430;2022-11-23T05:27:51;11.48;;;2.78;;
23567;SDS011;11962;50.838;4.430;2022-11-23T05:30:17;17.20;;;3.20;;
23567;SDS011;11962;50.838;4.430;2022-11-23T05:32:43;15.77;;;2.47;;
23567;SDS011;11962;50.838;4.430;2022-11-23T05:35:09;20.52;;;3.42;;
23567;SDS011;11962;50.838;4.430;2022-11-23T05:37:35;23.55;;;3.58;;
23567;SDS011;11962;50.838;4.430;2022-11-23T05:40:01;20.67;;;3.10;;
23567;SDS011;11962;50.838;4.430;2022-11-23T05:42:27;17.02;;;2.72;;
23567;SDS011;11962;50.838;4.430;2022-11-23T05:44:52;14.48;;;2.33;;
23567;SDS011;11962;50.838;4.430;2022-11-23T05:47:18;14.80;;;2.38;;
23567;SDS011;11962;50.838;4.430;2022-11-23T05:49:44;16.77;;;2.67;;
23567;SDS011;11962;50.838;4.430;2022-11-23T05:52:10;14.63;;;2.45;;
23567;SDS011;11962;50.838;4.430;2022-11-23T05:54:35;11.35;;;2.65;;
23567;SDS011;11962;50.838;4.430;2022-11-23T05:57:01;14.52;;;2.63;;
23567;SDS011;11962;50.838;4.430;2022-11-23T05:59:26;9.73;;;2.05;;
23567;SDS011;11962;50.838;4.430;2022-11-23T06:01:52;16.00;;;2.63;;
23567;SDS011;11962;50.838;4.430;2022-11-23T06:04:17;18.63;;;3.58;;
23567;SDS011;11962;50.838;4.430;2022-11-23T06:06:43;15.23;;;3.53;;
23567;SDS011;11962;50.838;4.430;2022-11-23T06:09:09;25.42;;;3.13;;
23567;SDS011;11962;50.838;4.430;2022-11-23T06:11:35;9.85;;;2.47;;
23567;SDS011;11962;50.838;4.430;2022-11-23T06:14:00;20.95;;;3.60;;
23567;SDS011;11962;50.838;4.430;2022-11-23T06:16:26;17.10;;;2.53;;
23567;SDS011;11962;50.838;4.430;2022-11-23T06:18:52;13.57;;;2.85;;
23567;SDS011;11962;50.838;4.430;2022-11-23T06:21:17;15.80;;;2.95;;
23567;SDS011;11962;50.838;4.430;2022-11-23T06:23:43;16.63;;;2.85;;
23567;SDS011;11962;50.838;4.430;2022-11-23T06:26:11;11.77;;;2.85;;
23567;SDS011;11962;50.838;4.430;2022-11-23T06:28:37;14.82;;;2.92;;
23567;SDS011;11962;50.838;4.430;2022-11-23T06:31:03;14.02;;;2.80;;
23567;SDS011;11962;50.838;4.430;2022-11-23T06:33:30;18.83;;;2.97;;
23567;SDS011;11962;50.838;4.430;2022-11-23T06:35:57;14.27;;;2.63;;
23567;SDS011;11962;50.838;4.430;2022-11-23T06:38:25;15.95;;;3.10;;
23567;SDS011;11962;50.838;4.430;2022-11-23T06:40:51;16.48;;;2.85;;
23567;SDS011;11962;50.838;4.430;2022-11-23T06:43:21;12.52;;;2.38;;
23567;SDS011;11962;50.838;4.430;2022-11-23T06:45:47;11.68;;;2.10;;
23567;SDS011;11962;50.838;4.430;2022-11-23T06:48:13;17.33;;;2.85;;
23567;SDS011;11962;50.838;4.430;2022-11-23T06:50:38;16.15;;;2.70;;
23567;SDS011;11962;50.838;4.430;2022-11-23T06:53:04;13.18;;;3.28;;
23567;SDS011;11962;50.838;4.430;2022-11-23T06:55:29;12.82;;;2.78;;
23567;SDS011;11962;50.838;4.430;2022-11-23T06:57:55;19.13;;;2.65;;
23567;SDS011;11962;50.838;4.430;2022-11-23T07:00:22;15.68;;;3.22;;
23567;SDS011;11962;50.838;4.430;2022-11-23T07:02:52;10.93;;;2.75;;
23567;SDS011;11962;50.838;4.430;2022-11-23T07:05:18;17.40;;;2.67;;
23567;SDS011;11962;50.838;4.430;2022-11-23T07:07:44;13.70;;;2.25;;
23567;SDS011;11962;50.838;4.430;2022-11-23T07:10:12;14.33;;;2.67;;
23567;SDS011;11962;50.838;4.430;2022-11-23T07:12:38;13.32;;;2.65;;
23567;SDS011;11962;50.838;4.430;2022-11-23T07:15:04;15.93;;;2.75;;
23567;SDS011;11962;50.838;4.430;2022-11-23T07:17:31;14.98;;;2.70;;
23567;SDS011;11962;50.838;4.430;2022-11-23T07:19:58;18.85;;;3.33;;
23567;SDS011;11962;50.838;4.430;2022-11-23T07:22:23;14.00;;;2.63;;
23567;SDS011;11962;50.838;4.430;2022-11-23T07:24:49;13.80;;;2.30;;
23567;SDS011;11962;50.838;4.430;2022-11-23T07:27:18;14.65;;;2.63;;
23567;SDS011;11962;50.838;4.430;2022-11-23T07:29:44;13.65;;;2.83;;
23567;SDS011;11962;50.838;4.430;2022-11-23T07:32:10;15.68;;;2.60;;
23567;SDS011;11962;50.838;4.430;2022-11-23T07:34:35;14.23;;;3.10;;
23567;SDS011;11962;50.838;4.430;2022-11-23T07:37:01;13.82;;;2.72;;
23567;SDS011;11962;50.838;4.430;2022-11-23T07:39:28;17.55;;;2.88;;
23567;SDS011;11962;50.838;4.430;2022-11-23T07:41:54;14.52;;;2.90;;
23567;SDS011;11962;50.838;4.430;2022-11-23T07:44:20;14.02;;;3.28;;
23567;SDS011;11962;50.838;4.430;2022-11-23T07:46:46;15.00;;;2.92;;
23567;SDS011;11962;50.838;4.430;2022-11-23T07:49:12;20.00;;;3.17;;
23567;SDS011;11962;50.838;4.430;2022-11-23T07:51:37;14.95;;;2.60;;
23567;SDS011;11962;50.838;4.430;2022-11-23T07:54:03;16.88;;;3.05;;
23567;SDS011;11962;50.838;4.430;2022-11-23T07:56:29;14.93;;;2.70;;
23567;SDS011;11962;50.838;4.430;2022-11-23T07:58:57;14.40;;;3.85;;
23567;SDS011;11962;50.838;4.430;2022-11-23T08:01:25;20.02;;;3.00;;
23567;SDS011;11962;50.838;4.430;2022-11-23T08:03:51;16.20;;;3.10;;
23567;SDS011;11962;50.838;4.430;2022-11-23T08:06:16;16.30;;;3.08;;
23567;SDS011;11962;50.838;4.430;2022-11-23T08:08:42;24.23;;;3.55;;
23567;SDS011;11962;50.838;4.430;2022-11-23T08:11:08;15.63;;;2.90;;
23567;SDS011;11962;50.838;4.430;2022-11-23T08:13:34;12.82;;;3.35;;
23567;SDS011;11962;50.838;4.430;2022-11-23T08:16:01;18.17;;;2.72;;
23567;SDS011;11962;50.838;4.430;2022-11-23T08:18:27;21.40;;;3.60;;
23567;SDS011;11962;50.838;4.430;2022-11-23T08:20:53;10.85;;;3.50;;
23567;SDS011;11962;50.838;4.430;2022-11-23T08:23:23;17.35;;;3.10;;
23567;SDS011;11962;50.838;4.430;2022-11-23T08:25:49;10.38;;;2.75;;
23567;SDS011;11962;50.838;4.430;2022-11-23T08:28:15;14.63;;;3.05;;
23567;SDS011;11962;50.838;4.430;2022-11-23T08:30:41;14.20;;;2.70;;
23567;SDS011;11962;50.838;4.430;2022-11-23T08:33:07;15.55;;;2.78;;
23567;SDS011;11962;50.838;4.430;2022-11-23T08:35:34;15.35;;;3.00;;
23567;SDS011;11962;50.838;4.430;2022-11-23T08:38:00;10.02;;;2.83;;
23567;SDS011;11962;50.838;4.430;2022-11-23T08:40:27;15.90;;;3.58;;
23567;SDS011;11962;50.838;4.430;2022-11-23T08:42:52;12.88;;;3.30;;
23567;SDS011;11962;50.838;4.430;2022-11-23T08:45:19;13.98;;;2.83;;
23567;SDS011;11962;50.838;4.430;2022-11-23T08:47:45;11.00;;;2.60;;
23567;SDS011;11962;50.838;4.430;2022-11-23T08:50:11;14.35;;;3.35;;
23567;SDS011;11962;50.838;4.430;2022-11-23T08:52:37;10.02;;;3.05;;
23567;SDS011;11962;50.838;4.430;2022-11-23T08:55:03;10.43;;;2.58;;
23567;SDS011;11962;50.838;4.430;2022-11-23T08:57:29;12.80;;;3.30;;
23567;SDS011;11962;50.838;4.430;2022-11-23T08:59:54;9.00;;;2.85;;
23567;SDS011;11962;50.838;4.430;2022-11-23T09:02:20;10.15;;;2.85;;
23567;SDS011;11962;50.838;4.430;2022-11-23T09:04:46;17.08;;;2.92;;
23567;SDS011;11962;50.838;4.430;2022-11-23T09:07:12;15.32;;;2.35;;
23567;SDS011;11962;50.838;4.430;2022-11-23T09:09:37;9.70;;;2.30;;
23567;SDS011;11962;50.838;4.430;2022-11-23T09:12:03;10.43;;;2.85;;
23567;SDS011;11962;50.838;4.430;2022-11-23T09:14:29;8.43;;;2.55;;
23567;SDS011;11962;50.838;4.430;2022-11-23T09:16:54;11.43;;;2.90;;
23567;SDS011;11962;50.838;4.430;2022-11-23T09:19:21;8.73;;;2.70;;
23567;SDS011;11962;50.838;4.430;2022-11-23T09:21:47;11.43;;;3.17;;
23567;SDS011;11962;50.838;4.430;2022-11-23T09:24:13;9.30;;;3.22;;
23567;SDS011;11962;50.838;4.430;2022-11-23T09:26:39;10.75;;;2.65;;
23567;SDS011;11962;50.838;4.430;2022-11-23T09:29:05;8.13;;;2.63;;
23567;SDS011;11962;50.838;4.430;2022-11-23T09:31:32;12.02;;;2.55;;
23567;SDS011;11962;50.838;4.430;2022-11-23T09:33:59;11.45;;;2.88;;
23567;SDS011;11962;50.838;4.430;2022-11-23T09:36:24;11.82;;;2.88;;
23567;SDS011;11962;50.838;4.430;2022-11-23T09:38:50;11.18;;;2.80;;
23567;SDS011;11962;50.838;4.430;2022-11-23T09:44:01;9.40;;;2.70;;
23567;SDS011;11962;50.838;4.430;2022-11-23T09:46:40;9.32;;;2.20;;
23567;SDS011;11962;50.838;4.430;2022-11-23T09:49:32;8.45;;;2.65;;
23567;SDS011;11962;50.838;4.430;2022-11-23T09:52:27;8.57;;;2.17;;
23567;SDS011;11962;50.838;4.430;2022-11-23T09:54:55;8.15;;;2.25;;
23567;SDS011;11962;50.838;4.430;2022-11-23T09:57:25;8.80;;;2.00;;
23567;SDS011;11962;50.838;4.430;2022-11-23T10:00:04;7.00;;;2.20;;
23567;SDS011;11962;50.838;4.430;2022-11-23T10:02:46;9.05;;;1.90;;
23567;SDS011;11962;50.838;4.430;2022-11-23T10:05:17;10.13;;;2.20;;
23567;SDS011;11962;50.838;4.430;2022-11-23T10:10:44;7.93;;;1.80;;
23567;SDS011;11962;50.838;4.430;2022-11-23T10:13:37;10.70;;;2.15;;
23567;SDS011;11962;50.838;4.430;2022-11-23T10:16:51;4.65;;;1.85;;
23567;SDS011;11962;50.838;4.430;2022-11-23T10:19:13;9.07;;;2.00;;
23567;SDS011;11962;50.838;4.430;2022-11-23T10:24:16;7.68;;;1.95;;
23567;SDS011;11962;50.838;4.430;2022-11-23T10:26:44;7.82;;;2.00;;
23567;SDS011;11962;50.838;4.430;2022-11-23T10:29:15;7.35;;;1.80;;
23567;SDS011;11962;50.838;4.430;2022-11-23T10:31:49;6.03;;;1.70;;
23567;SDS011;11962;50.838;4.430;2022-11-23T10:34:16;5.60;;;1.90;;
23567;SDS011;11962;50.838;4.430;2022-11-23T10:36:48;7.60;;;2.17;;
23567;SDS011;11962;50.838;4.430;2022-11-23T10:39:16;10.48;;;2.13;;
23567;SDS011;11962;50.838;4.430;2022-11-23T10:41:49;5.38;;;1.70;;
23567;SDS011;11962;50.838;4.430;2022-11-23T10:46:42;4.90;;;2.00;;
23567;SDS011;11962;50.838;4.430;2022-11-23T10:49:11;6.20;;;1.90;;
23567;SDS011;11962;50.838;4.430;2022-11-23T10:51:37;5.78;;;1.60;;
23567;SDS011;11962;50.838;4.430;2022-11-23T10:54:05;4.55;;;1.70;;
23567;SDS011;11962;50.838;4.430;2022-11-23T10:59:28;4.63;;;1.90;;
23567;SDS011;11962;50.838;4.430;2022-11-23T11:02:10;5.93;;;2.05;;
23567;SDS011;11962;50.838;4.430;2022-11-23T11:04:40;8.75;;;1.90;;
23567;SDS011;11962;50.838;4.430;2022-11-23T11:07:11;7.57;;;1.77;;
23567;SDS011;11962;50.838;4.430;2022-11-23T11:09:51;9.40;;;1.83;;
23567;SDS011;11962;50.838;4.430;2022-11-23T11:12:19;5.70;;;1.92;;
23567;SDS011;11962;50.838;4.430;2022-11-23T11:14:54;8.07;;;2.13;;
23567;SDS011;11962;50.838;4.430;2022-11-23T11:17:25;11.02;;;2.38;;
23567;SDS011;11962;50.838;4.430;2022-11-23T11:19:53;6.03;;;1.90;;
23567;SDS011;11962;50.838;4.430;2022-11-23T11:22:37;7.28;;;1.50;;
23567;SDS011;11962;50.838;4.430;2022-11-23T11:25:03;8.00;;;1.58;;
23567;SDS011;11962;50.838;4.430;2022-11-23T11:27:30;7.13;;;2.10;;
23567;SDS011;11962;50.838;4.430;2022-11-23T11:30:02;7.95;;;1.50;;
23567;SDS011;11962;50.838;4.430;2022-11-23T11:32:42;9.52;;;1.95;;
23567;SDS011;11962;50.838;4.430;2022-11-23T11:35:33;6.50;;;2.30;;
23567;SDS011;11962;50.838;4.430;2022-11-23T11:38:07;9.55;;;1.85;;
23567;SDS011;11962;50.838;4.430;2022-11-23T11:45:57;5.25;;;1.42;;
23567;SDS011;11962;50.838;4.430;2022-11-23T11:51:16;9.05;;;2.17;;
23567;SDS011;11962;50.838;4.430;2022-11-23T11:57:02;7.95;;;2.20;;
23567;SDS011;11962;50.838;4.430;2022-11-23T11:59:42;5.93;;;1.77;;
23567;SDS011;11962;50.838;4.430;2022-11-23T12:02:25;8.05;;;2.05;;
23567;SDS011;11962;50.838;4.430;2022-11-23T12:05:21;7.82;;;1.75;;
23567;SDS011;11962;50.838;4.430;2022-11-23T12:10:55;5.72;;;1.60;;
23567;SDS011;11962;50.838;4.430;2022-11-23T12:30:09;4.72;;;1.25;;
23567;SDS011;11962;50.838;4.430;2022-11-23T12:57:33;4.47;;;1.75;;
23567;SDS011;11962;50.838;4.430;2022-11-23T13:00:24;8.10;;;1.92;;
23567;SDS011;11962;50.838;4.430;2022-11-23T13:03:00;4.75;;;1.40;;
23567;SDS011;11962;50.838;4.430;2022-11-23T13:06:14;3.25;;;1.30;;
23567;SDS011;11962;50.838;4.430;2022-11-23T13:14:25;3.47;;;1.45;;
23567;SDS011;11962;50.838;4.430;2022-11-23T13:22:35;4.30;;;1.30;;
23567;SDS011;11962;50.838;4.430;2022-11-23T13:32:57;2.80;;;1.13;;
23567;SDS011;11962;50.838;4.430;2022-11-23T13:40:32;2.92;;;1.23;;
23567;SDS011;11962;50.838;4.430;2022-11-23T13:43:00;4.13;;;1.40;;
23567;SDS011;11962;50.838;4.430;2022-11-23T13:45:44;3.40;;;1.23;;
23567;SDS011;11962;50.838;4.430;2022-11-23T13:55:48;6.80;;;1.48;;
23567;SDS011;11962;50.838;4.430;2022-11-23T14:06:19;4.75;;;1.30;;
23567;SDS011;11962;50.838;4.430;2022-11-23T14:08:59;5.63;;;1.75;;
23567;SDS011;11962;50.838;4.430;2022-11-23T14:11:30;3.35;;;1.63;;
23567;SDS011;11962;50.838;4.430;2022-11-23T14:14:12;3.30;;;1.40;;
23567;SDS011;11962;50.838;4.430;2022-11-23T14:19:34;3.00;;;1.20;;
23567;SDS011;11962;50.838;4.430;2022-11-23T14:25:33;3.97;;;1.20;;
23567;SDS011;11962;50.838;4.430;2022-11-23T14:28:33;4.32;;;1.52;;
23567;SDS011;11962;50.838;4.430;2022-11-23T14:31:31;3.70;;;1.30;;
23567;SDS011;11962;50.838;4.430;2022-11-23T14:34:12;5.20;;;1.48;;
23567;SDS011;11962;50.838;4.430;2022-11-23T14:40:00;5.63;;;1.75;;
23567;SDS011;11962;50.838;4.430;2022-11-23T14:42:30;3.33;;;1.80;;
23567;SDS011;11962;50.838;4.430;2022-11-23T14:45:04;3.72;;;1.33;;
23567;SDS011;11962;50.838;4.430;2022-11-23T14:47:33;3.90;;;1.83;;
23567;SDS011;11962;50.838;4.430;2022-11-23T14:52:28;4.82;;;1.98;;
23567;SDS011;11962;50.838;4.430;2022-11-23T14:54:58;6.85;;;2.78;;
23567;SDS011;11962;50.838;4.430;2022-11-23T14:57:41;4.70;;;2.30;;
23567;SDS011;11962;50.838;4.430;2022-11-23T15:00:21;2.75;;;1.80;;
23567;SDS011;11962;50.838;4.430;2022-11-23T15:03:08;5.43;;;1.40;;
23567;SDS011;11962;50.838;4.430;2022-11-23T15:05:39;3.03;;;1.40;;
23567;SDS011;11962;50.838;4.430;2022-11-23T15:08:20;1.65;;;1.25;;
23567;SDS011;11962;50.838;4.430;2022-11-23T15:10:51;3.05;;;1.27;;
23567;SDS011;11962;50.838;4.430;2022-11-23T15:13:28;4.93;;;1.55;;
23567;SDS011;11962;50.838;4.430;2022-11-23T15:15:56;2.63;;;1.30;;
23567;SDS011;11962;50.838;4.430;2022-11-23T15:18:32;4.53;;;1.52;;
23567;SDS011;11962;50.838;4.430;2022-11-23T15:21:02;2.40;;;1.70;;
23567;SDS011;11962;50.838;4.430;2022-11-23T15:23:39;4.95;;;1.50;;
23567;SDS011;11962;50.838;4.430;2022-11-23T15:28:46;3.40;;;1.60;;
23567;SDS011;11962;50.838;4.430;2022-11-23T15:31:23;3.83;;;1.83;;
23567;SDS011;11962;50.838;4.430;2022-11-23T15:34:12;3.05;;;1.83;;
23567;SDS011;11962;50.838;4.430;2022-11-23T15:36:39;4.07;;;1.77;;
23567;SDS011;11962;50.838;4.430;2022-11-23T15:39:06;4.43;;;1.67;;
23567;SDS011;11962;50.838;4.430;2022-11-23T15:41:37;3.88;;;1.77;;
23567;SDS011;11962;50.838;4.430;2022-11-23T15:44:23;3.63;;;1.50;;
23567;SDS011;11962;50.838;4.430;2022-11-23T15:46:54;4.47;;;1.80;;
23567;SDS011;11962;50.838;4.430;2022-11-23T15:49:31;6.28;;;2.00;;
23567;SDS011;11962;50.838;4.430;2022-11-23T15:52:03;4.65;;;2.25;;
23567;SDS011;11962;50.838;4.430;2022-11-23T15:54:38;5.18;;;2.22;;
23567;SDS011;11962;50.838;4.430;2022-11-23T15:57:12;4.80;;;2.25;;
23567;SDS011;11962;50.838;4.430;2022-11-23T16:00:17;7.93;;;2.10;;
23567;SDS011;11962;50.838;4.430;2022-11-23T16:02:46;6.20;;;2.30;;
23567;SDS011;11962;50.838;4.430;2022-11-23T16:05:14;5.68;;;2.40;;
23567;SDS011;11962;50.838;4.430;2022-11-23T16:07:52;6.45;;;2.13;;
23567;SDS011;11962;50.838;4.430;2022-11-23T16:10:23;8.15;;;2.53;;
23567;SDS011;11962;50.838;4.430;2022-11-23T16:12:51;8.95;;;3.03;;
23567;SDS011;11962;50.838;4.430;2022-11-23T16:17:56;7.63;;;2.72;;
23567;SDS011;11962;50.838;4.430;2022-11-23T16:20:26;12.80;;;3.85;;
23567;SDS011;11962;50.838;4.430;2022-11-23T16:22:55;11.10;;;4.28;;
23567;SDS011;11962;50.838;4.430;2022-11-23T16:25:27;8.35;;;4.28;;
23567;SDS011;11962;50.838;4.430;2022-11-23T16:28:05;7.35;;;3.47;;
23567;SDS011;11962;50.838;4.430;2022-11-23T16:30:42;7.72;;;3.35;;
23567;SDS011;11962;50.838;4.430;2022-11-23T16:33:17;6.13;;;3.30;;
23567;SDS011;11962;50.838;4.430;2022-11-23T16:35:44;8.98;;;3.45;;
23567;SDS011;11962;50.838;4.430;2022-11-23T16:38:09;10.77;;;3.33;;
23567;SDS011;11962;50.838;4.430;2022-11-23T16:40:39;9.35;;;3.30;;
23567;SDS011;11962;50.838;4.430;2022-11-23T16:43:04;6.85;;;2.80;;
23567;SDS011;11962;50.838;4.430;2022-11-23T16:45:30;6.97;;;3.05;;
23567;SDS011;11962;50.838;4.430;2022-11-23T16:50:27;11.20;;;3.63;;
23567;SDS011;11962;50.838;4.430;2022-11-23T16:53:01;10.98;;;3.85;;
23567;SDS011;11962;50.838;4.430;2022-11-23T16:55:36;8.95;;;3.60;;
23567;SDS011;11962;50.838;4.430;2022-11-23T16:58:02;10.18;;;4.15;;
23567;SDS011;11962;50.838;4.430;2022-11-23T17:00:28;13.73;;;4.03;;
23567;SDS011;11962;50.838;4.430;2022-11-23T17:02:56;13.52;;;4.03;;
23567;SDS011;11962;50.838;4.430;2022-11-23T17:05:22;12.45;;;4.30;;
23567;SDS011;11962;50.838;4.430;2022-11-23T17:07:50;8.48;;;4.15;;
23567;SDS011;11962;50.838;4.430;2022-11-23T17:10:16;11.00;;;4.22;;
23567;SDS011;11962;50.838;4.430;2022-11-23T17:12:50;13.15;;;4.55;;